Time,TemperatureF,DewpointF,PressureIn,WindDirection,WindDirectionDegrees,WindSpeedMPH,WindSpeedGustMPH,Humidity,HourlyPrecipIn,Conditions,Clouds,dailyrainin,SoftwareType,DateUTC
2013-01-06 00:00:00,32.7,13.2,29.71,SW,225,4.5,4.5,44,0.00,,---,0.00,VWS V14.00,2013-01-06 02:00:00,
2013-01-06 00:05:00,32.7,13.2,29.71,West,270,0.0,0.0,44,0.00,,---,0.00,VWS V14.00,2013-01-06 02:05:00,
2013-01-06 00:10:00,32.7,13.7,29.71,West,270,0.0,0.0,45,0.00,,---,0.00,VWS V14.00,2013-01-06 02:10:00,
2013-01-06 00:15:00,32.9,13.9,29.71,West,270,0.0,3.1,45,0.00,,---,0.00,VWS V14.00,2013-01-06 02:15:00,
2013-01-06 00:20:00,33.1,14.1,29.71,SW,225,3.6,5.4,45,0.00,,---,0.00,VWS V14.00,2013-01-06 02:20:00,
2013-01-06 00:25:00,33.1,14.1,29.68,West,270,0.0,2.2,45,0.00,,---,0.00,VWS V14.00,2013-01-06 02:25:00,
2013-01-06 00:30:00,33.3,14.2,29.68,West,270,0.0,2.7,45,0.00,,---,0.00,VWS V14.00,2013-01-06 02:30:00,
2013-01-06 00:35:00,33.3,14.2,29.68,West,270,0.0,5.8,45,0.00,,---,0.00,VWS V14.00,2013-01-06 02:35:00,
2013-01-06 00:40:00,33.4,14.4,29.68,West,270,5.4,5.4,45,0.00,,---,0.00,VWS V14.00,2013-01-06 02:40:00,
2013-01-06 00:45:00,33.6,14.6,29.68,West,270,7.6,7.6,45,0.00,,---,0.00,VWS V14.00,2013-01-06 02:45:00,
2013-01-06 00:50:00,34.0,14.9,29.68,NW,315,0.0,8.7,45,0.00,,---,0.00,VWS V14.00,2013-01-06 02:50:00,
2013-01-06 00:55:00,34.2,14.5,29.68,West,270,8.1,8.1,44,0.00,,---,0.00,VWS V14.00,2013-01-06 02:55:00,
2013-01-06 01:00:00,34.3,14.7,29.68,NW,315,5.4,5.8,44,0.00,,---,0.00,VWS V14.00,2013-01-06 03:00:00,
2013-01-06 01:05:00,34.5,14.3,29.68,NW,315,0.0,4.5,43,0.00,,---,0.00,VWS V14.00,2013-01-06 03:05:00,
2013-01-06 01:10:00,34.9,14.7,29.68,NW,315,2.2,5.4,43,0.00,,---,0.00,VWS V14.00,2013-01-06 03:10:00,
2013-01-06 01:15:00,34.9,14.7,29.68,WNW,292,0.0,0.0,43,0.00,,---,0.00,VWS V14.00,2013-01-06 03:15:00,
2013-01-06 01:20:00,35.1,14.3,29.68,WNW,292,0.0,0.0,42,0.00,,---,0.00,VWS V14.00,2013-01-06 03:20:00,
2013-01-06 01:25:00,35.2,14.5,29.68,West,270,0.0,0.0,42,0.00,,---,0.00,VWS V14.00,2013-01-06 03:25:00,
2013-01-06 01:30:00,35.2,14.5,29.68,West,270,0.0,0.0,42,0.00,,---,0.00,VWS V14.00,2013-01-06 03:30:00,
2013-01-06 01:35:00,35.2,14.5,29.68,NW,315,0.0,0.0,42,0.00,,---,0.00,VWS V14.00,2013-01-06 03:35:00,
2013-01-06 01:40:00,35.2,14.5,29.68,NW,315,0.0,0.0,42,0.00,,---,0.00,VWS V14.00,2013-01-06 03:40:00,
2013-01-06 21:43:00,36.7,27.8,29.56,NW,315,0.0,0.0,70,0.00,,---,0.00,VWS V14.00,2013-01-06 23:43:00,
2013-01-06 21:48:00,36.7,27.8,29.56,NW,315,3.1,4.5,70,0.00,,---,0.00,VWS V14.00,2013-01-06 23:48:00,
2013-01-06 21:53:00,36.7,27.5,29.56,NW,315,0.0,0.0,69,0.00,,---,0.00,VWS V14.00,2013-01-06 23:53:00,
2013-01-06 21:58:00,36.7,27.1,29.56,NNW,338,4.5,4.5,68,0.00,,---,0.00,VWS V14.00,2013-01-06 23:58:00,
2013-01-06 22:03:00,36.7,27.1,29.56,North,0,6.3,6.3,68,0.00,,---,0.00,VWS V14.00,2013-01-07 00:03:00,
2013-01-06 22:08:00,36.7,26.8,29.56,NNW,338,0.0,2.7,67,0.00,,---,0.00,VWS V14.00,2013-01-07 00:08:00,
2013-01-06 22:13:00,36.5,26.6,29.56,WNW,292,0.0,0.0,67,0.00,,---,0.00,VWS V14.00,2013-01-07 00:13:00,
2013-01-06 22:18:00,36.5,26.6,29.56,North,0,0.0,0.0,67,0.00,,---,0.00,VWS V14.00,2013-01-07 00:18:00,
2013-01-06 22:23:00,36.7,27.1,29.59,NW,315,2.7,4.0,68,0.00,,---,0.00,VWS V14.00,2013-01-07 00:23:00,
2013-01-06 22:28:00,36.5,27.0,29.59,NW,315,0.0,7.6,68,0.00,,---,0.00,VWS V14.00,2013-01-07 00:28:00,
2013-01-06 22:33:00,36.5,27.0,29.59,North,0,0.0,0.0,68,0.00,,---,0.00,VWS V14.00,2013-01-07 00:33:00,
2013-01-06 22:38:00,36.3,27.1,29.59,NW,315,0.0,0.0,69,0.00,,---,0.00,VWS V14.00,2013-01-07 00:38:00,
2013-01-06 22:43:00,36.3,27.1,29.59,NW,315,0.0,0.0,69,0.00,,---,0.00,VWS V14.00,2013-01-07 00:43:00,
2013-01-06 22:48:00,36.3,27.5,29.59,North,0,0.0,0.0,70,0.00,,---,0.00,VWS V14.00,2013-01-07 00:48:00,
2013-01-06 22:53:00,36.3,27.5,29.59,NW,315,0.0,0.0,70,0.00,,---,0.00,VWS V14.00,2013-01-07 00:53:00,
2013-01-06 22:58:00,36.3,27.8,29.59,West,270,6.3,6.3,71,0.00,,---,0.00,VWS V14.00,2013-01-07 00:58:00,
2013-01-06 23:03:00,36.3,27.8,29.59,NE,45,0.0,3.1,71,0.00,,---,0.00,VWS V14.00,2013-01-07 01:03:00,
2013-01-06 23:08:00,36.3,27.8,29.59,North,0,0.0,0.0,71,0.00,,---,0.00,VWS V14.00,2013-01-07 01:08:00,
2013-01-06 23:13:00,36.3,27.8,29.59,WNW,292,0.0,0.0,71,0.00,,---,0.00,VWS V14.00,2013-01-07 01:13:00,
2013-01-06 23:18:00,36.3,28.2,29.59,NW,315,0.0,0.0,72,0.00,,---,0.00,VWS V14.00,2013-01-07 01:18:00,
2013-01-06 23:23:00,36.3,28.2,29.59,North,0,0.0,4.9,72,0.00,,---,0.00,VWS V14.00,2013-01-07 01:23:00,
2013-01-06 23:28:00,36.3,28.2,29.59,NW,315,0.0,0.0,72,0.00,,---,0.00,VWS V14.00,2013-01-07 01:28:00,
2013-01-06 23:33:00,36.3,28.2,29.59,NW,315,0.0,0.0,72,0.00,,---,0.00,VWS V14.00,2013-01-07 01:33:00,
2013-01-06 23:38:00,36.3,28.2,29.59,NW,315,0.0,0.0,72,0.00,,---,0.00,VWS V14.00,2013-01-07 01:38:00,
2013-01-06 23:43:00,36.3,27.8,29.59,NW,315,0.0,0.0,71,0.00,,---,0.00,VWS V14.00,2013-01-07 01:43:00,
2013-01-06 23:48:00,36.3,27.8,29.59,North,0,0.0,0.0,71,0.00,,---,0.00,VWS V14.00,2013-01-07 01:48:00,
2013-01-06 23:53:00,36.3,28.2,29.62,NW,315,2.2,2.2,72,0.00,,---,0.00,VWS V14.00,2013-01-07 01:53:00,
2013-01-06 23:58:00,36.3,28.2,29.62,NW,315,0.0,0.0,72,0.00,,---,0.00,VWS V14.00,2013-01-07 01:58:00,